Greenleafton, Minnesota
Current Conditions -  °F | °C
As of 7:15 AM on Thursday 27 Nov 2014 (Local Time) from KFKA Reporting Station
Clear Clear  
Wind Chill: -17°   Ceiling: Unl
Heat Index:   Visibility: 10mi
Dew Point: -5°   Wind: 12mph
Humidity: 81%   Direction: 330°NNW
Pressure: 30.4"   Gusts: NA
Location:  43.6343°N, 92.1426°W
Report Text: KFKA 271315Z AUTO 33010KT 10SM CLR M18/M20 A3040 RMK AO2 T11781203
Loading
Personal Weather Stations






























Interactive Weather Map New forecast layout! Learn more

10-Day Weather Forecast

Advertisements
Track Severe Weather on mobile